Terminal Aerodrome Forecast
Issued by NWS Duluth, MN

Home | Current Version | Previous Version | Text Only | Print | Product List | Glossary On
Versions: 1 2 3 4 5 6 7 8 9 10 11 12 13 14
000
FTUS43 KDLH 240500
TAFDLH
TAF
KDLH 240528Z 2406/2506 28006KT P6SM BKN250
     FM241500 09006KT P6SM SCT060 BKN100
     FM242200 08006KT P6SM VCSH OVC050
     FM250200 09005KT 5SM -RA BKN035 OVC080=

USA.gov is the U.S. government's official web portal to all federal, state and local government web resources and services.